London, Minnesota
Current Conditions -  °F | °C
As of 5:14 PM on Friday 31 Oct 2014 (Local Time) from KAEL Reporting Station
Clear Clear  
Wind Chill:   Ceiling: Unl
Heat Index:   Visibility: 10mi
Dew Point: -9°   Wind: 7mph
Humidity: 41%   Direction: 350°N
Pressure: 30.47"   Gusts: NA
Location:  43.5439°N, 93.1707°W
Report Text: KAEL 312214Z AUTO 35006KT 10SM CLR 03/M09 A3047 RMK AO2
Loading
Personal Weather Stations






























Interactive Weather Map
Tropical Storm Tracking
New forecast layout! Learn more

10-Day Weather Forecast

Advertisements
Track Severe Weather on mobile